Time;durP1;ratioP1;P1;durP2;ratioP2;P2;SDS_P1;SDS_P2;PMS_P1;PMS_P2;Temp;Humidity;BMP_temperature;BMP_pressure;BME280_temperature;BME280_humidity;BME280_pressure;Samples;Min_cycle;Max_cycle;Signal;HPM_P1;HPM_P2
2023/01/19 00:03:14;;;;;;;36.67;3.63;;;;;;;;;;10456348;28;20024;-77
2023/01/19 00:08:15;;;;;;;33.63;3.50;;;;;;;;;;10460706;28;20032;-73
2023/01/19 00:13:15;;;;;;;28.20;3.75;;;;;;;;;;10463482;28;20508;-76
2023/01/19 00:18:16;;;;;;;26.02;3.13;;;;;;;;;;10441422;28;20024;-76
2023/01/19 00:23:16;;;;;;;28.40;3.22;;;;;;;;;;10463022;28;20020;-74
2023/01/19 00:28:18;;;;;;;21.73;2.75;;;;;;;;;;10462977;28;20028;-75
2023/01/19 00:33:18;;;;;;;24.83;3.70;;;;;;;;;;10463626;28;20013;-75
2023/01/19 00:38:18;;;;;;;33.45;3.55;;;;;;;;;;10486003;28;20808;-76
2023/01/19 00:43:18;;;;;;;17.90;2.45;;;;;;;;;;10481583;28;20032;-77
2023/01/19 00:48:19;;;;;;;24.13;3.30;;;;;;;;;;10478109;28;20021;-74
2023/01/19 00:53:19;;;;;;;19.90;3.28;;;;;;;;;;10466894;28;20039;-74
2023/01/19 00:58:21;;;;;;;32.53;3.50;;;;;;;;;;10481003;28;20120;-76
2023/01/19 01:03:26;;;;;;;23.50;3.10;;;;;;;;;;10487708;28;20011;-74
2023/01/19 01:08:27;;;;;;;18.95;4.70;;;;;;;;;;10469790;28;20482;-75
2023/01/19 01:13:27;;;;;;;13.13;2.43;;;;;;;;;;10451101;28;20012;-76
2023/01/19 01:18:27;;;;;;;33.47;4.30;;;;;;;;;;10467831;28;20024;-75
2023/01/19 01:23:27;;;;;;;38.95;4.88;;;;;;;;;;10466394;28;20056;-76
2023/01/19 01:28:28;;;;;;;18.02;3.55;;;;;;;;;;10469525;28;20081;-77
2023/01/19 01:33:28;;;;;;;19.83;2.83;;;;;;;;;;10464716;28;20423;-76
2023/01/19 01:38:28;;;;;;;24.67;3.38;;;;;;;;;;10479151;28;20032;-77
2023/01/19 01:43:46;;;;;;;16.95;2.25;;;;;;;;;;10483278;28;20107;-74
2023/01/19 01:48:53;;;;;;;32.50;3.03;;;;;;;;;;10486454;28;20013;-74
2023/01/19 01:53:58;;;;;;;21.80;3.93;;;;;;;;;;10468169;28;20029;-73
2023/01/19 01:58:59;;;;;;;21.40;4.10;;;;;;;;;;10468217;28;20020;-77
2023/01/19 02:03:59;;;;;;;19.67;2.45;;;;;;;;;;10464499;28;20124;-75
2023/01/19 02:14:23;;;;;;;21.50;2.67;;;;;;;;;;10483187;28;20028;-77
2023/01/19 02:19:27;;;;;;;19.33;2.28;;;;;;;;;;10450687;28;20016;-77
2023/01/19 02:24:28;;;;;;;16.33;2.63;;;;;;;;;;10466534;28;20080;-78
2023/01/19 02:29:28;;;;;;;14.65;2.55;;;;;;;;;;10466590;28;20013;-74
2023/01/19 02:34:28;;;;;;;19.55;1.92;;;;;;;;;;10450854;28;20028;-73
2023/01/19 02:39:33;;;;;;;21.50;2.97;;;;;;;;;;10442249;28;20020;-74
2023/01/19 02:44:35;;;;;;;11.65;3.00;;;;;;;;;;10442429;28;20025;-75
2023/01/19 02:49:35;;;;;;;21.92;1.88;;;;;;;;;;10457555;28;20037;-74
2023/01/19 02:54:48;;;;;;;21.52;2.47;;;;;;;;;;10483320;28;20036;-76
2023/01/19 02:59:49;;;;;;;13.98;1.38;;;;;;;;;;10462977;28;20497;-75
2023/01/19 03:04:49;;;;;;;17.67;2.15;;;;;;;;;;10462643;28;20020;-75
2023/01/19 03:09:49;;;;;;;22.10;2.42;;;;;;;;;;10463704;28;20025;-77
2023/01/19 03:14:52;;;;;;;16.47;2.17;;;;;;;;;;10475252;28;20021;-75
2023/01/19 03:19:53;;;;;;;24.13;5.38;;;;;;;;;;10455245;28;20274;-75
2023/01/19 03:24:55;;;;;;;54.80;40.30;;;;;;;;;;10463104;28;20448;-75
2023/01/19 03:29:59;;;;;;;13.48;5.32;;;;;;;;;;10464528;28;20515;-77
2023/01/19 03:35:00;;;;;;;40.33;9.32;;;;;;;;;;10454720;28;20024;-79
2023/01/19 03:40:00;;;;;;;13.77;2.67;;;;;;;;;;10453631;28;20027;-72
2023/01/19 03:45:00;;;;;;;16.67;2.35;;;;;;;;;;10464765;28;20021;-75
2023/01/19 03:50:02;;;;;;;22.50;2.27;;;;;;;;;;10464918;28;20166;-73
2023/01/19 03:55:04;;;;;;;9.77;1.45;;;;;;;;;;10463664;28;20568;-73
2023/01/19 04:00:04;;;;;;;15.80;2.67;;;;;;;;;;10481703;28;20025;-77
2023/01/19 04:05:05;;;;;;;24.08;2.92;;;;;;;;;;10464041;28;20016;-78
2023/01/19 04:10:05;;;;;;;34.88;6.63;;;;;;;;;;10464010;28;20489;-75
2023/01/19 04:15:06;;;;;;;39.15;13.85;;;;;;;;;;10453880;28;20028;-72
2023/01/19 04:20:06;;;;;;;;;;;;;;;;;;10462242;28;20102;-77
2023/01/19 04:25:07;;;;;;;28.98;4.05;;;;;;;;;;10459271;28;20434;-78
2023/01/19 04:30:08;;;;;;;23.55;4.30;;;;;;;;;;10468378;28;20039;-78
2023/01/19 04:35:09;;;;;;;37.50;5.32;;;;;;;;;;10471249;28;20048;-76
2023/01/19 04:40:09;;;;;;;22.30;3.13;;;;;;;;;;10470275;28;20746;-78
2023/01/19 04:45:10;;;;;;;42.13;4.60;;;;;;;;;;10433717;28;20020;-78
2023/01/19 04:50:11;;;;;;;43.58;5.90;;;;;;;;;;10407328;28;20036;-76
2023/01/19 04:55:11;;;;;;;26.73;4.43;;;;;;;;;;10414681;28;20025;-78
2023/01/19 05:00:12;;;;;;;48.10;8.10;;;;;;;;;;10451149;28;20040;-73
2023/01/19 05:05:12;;;;;;;36.35;6.20;;;;;;;;;;10446605;28;20510;-77
2023/01/19 05:10:12;;;;;;;33.15;4.63;;;;;;;;;;10446917;28;20036;-76
2023/01/19 05:15:13;;;;;;;24.95;4.53;;;;;;;;;;10466972;28;20521;-71
2023/01/19 05:20:13;;;;;;;28.75;4.05;;;;;;;;;;10465828;28;20013;-75
2023/01/19 05:25:13;;;;;;;27.98;3.22;;;;;;;;;;10439737;28;20049;-77
2023/01/19 05:30:14;;;;;;;27.08;5.00;;;;;;;;;;10439261;28;20273;-74
2023/01/19 05:35:15;;;;;;;29.67;4.07;;;;;;;;;;10466007;28;20068;-77
2023/01/19 05:40:15;;;;;;;29.00;3.88;;;;;;;;;;10467575;28;20028;-72
2023/01/19 05:45:16;;;;;;;31.77;5.77;;;;;;;;;;10441399;28;20043;-78
2023/01/19 05:50:16;;;;;;;40.05;4.13;;;;;;;;;;10430026;28;20023;-76
2023/01/19 05:55:16;;;;;;;24.58;4.90;;;;;;;;;;10442870;28;20104;-80
2023/01/19 06:00:17;;;;;;;54.00;5.40;;;;;;;;;;10447071;28;20558;-74
2023/01/19 06:05:17;;;;;;;53.53;6.23;;;;;;;;;;10406060;28;20029;-77
2023/01/19 06:10:17;;;;;;;38.45;4.25;;;;;;;;;;10424532;28;20263;-77
2023/01/19 06:15:17;;;;;;;31.27;4.00;;;;;;;;;;10440100;28;20029;-73
2023/01/19 06:20:18;;;;;;;44.13;5.90;;;;;;;;;;10445536;28;20030;-74
2023/01/19 06:25:18;;;;;;;35.42;4.85;;;;;;;;;;10395879;28;20193;-79
2023/01/19 06:30:18;;;;;;;32.70;5.18;;;;;;;;;;10440773;28;20029;-73
2023/01/19 06:35:19;;;;;;;31.30;5.03;;;;;;;;;;10441604;28;20068;-76
2023/01/19 06:40:19;;;;;;;32.50;5.87;;;;;;;;;;10450816;28;20032;-76
2023/01/19 06:45:19;;;;;;;41.95;4.75;;;;;;;;;;10426664;28;20024;-76
2023/01/19 06:50:20;;;;;;;34.80;4.97;;;;;;;;;;10447272;28;20033;-77
2023/01/19 06:55:20;;;;;;;31.48;5.43;;;;;;;;;;10401709;28;20040;-76
2023/01/19 07:00:20;;;;;;;34.80;5.65;;;;;;;;;;10442854;28;20021;-75
2023/01/19 07:05:21;;;;;;;29.90;4.53;;;;;;;;;;10477540;28;20032;-75
2023/01/19 07:10:22;;;;;;;41.30;4.40;;;;;;;;;;10445561;28;20036;-75
2023/01/19 07:15:22;;;;;;;45.75;6.20;;;;;;;;;;10431687;28;20082;-78
2023/01/19 07:20:22;;;;;;;29.33;3.60;;;;;;;;;;10466506;28;20032;-78
2023/01/19 07:25:22;;;;;;;23.20;4.32;;;;;;;;;;10427599;28;20067;-71
2023/01/19 07:30:23;;;;;;;35.13;4.85;;;;;;;;;;10424410;28;20033;-76
2023/01/19 07:35:23;;;;;;;40.33;4.97;;;;;;;;;;10434056;28;20029;-77
2023/01/19 07:40:24;;;;;;;29.80;4.15;;;;;;;;;;10448461;28;20115;-73
2023/01/19 07:45:24;;;;;;;20.63;4.77;;;;;;;;;;10466377;28;20059;-75
2023/01/19 07:50:26;;;;;;;47.92;6.88;;;;;;;;;;10466075;28;20036;-76
2023/01/19 07:55:26;;;;;;;51.80;8.15;;;;;;;;;;10466169;28;20434;-77
2023/01/19 08:00:27;;;;;;;38.35;4.93;;;;;;;;;;10474863;28;20058;-76
2023/01/19 08:05:30;;;;;;;27.90;5.60;;;;;;;;;;10446056;28;20025;-76
2023/01/19 08:10:32;;;;;;;41.10;4.82;;;;;;;;;;10437543;28;20036;-79
2023/01/19 08:15:33;;;;;;;32.05;4.90;;;;;;;;;;10437951;28;20020;-72
2023/01/19 08:20:33;;;;;;;33.72;5.05;;;;;;;;;;10454226;28;20021;-80
2023/01/19 08:25:34;;;;;;;41.22;6.55;;;;;;;;;;10437041;28;20060;-80
2023/01/19 08:30:35;;;;;;;53.67;6.75;;;;;;;;;;10452490;28;20063;-75
2023/01/19 08:35:36;;;;;;;48.10;5.97;;;;;;;;;;10398406;28;20032;-78
2023/01/19 08:40:38;;;;;;;45.10;6.45;;;;;;;;;;10496041;28;20816;-74
2023/01/19 08:45:46;;;;;;;39.83;6.35;;;;;;;;;;10460884;28;20401;-72
2023/01/19 08:50:48;;;;;;;36.22;5.25;;;;;;;;;;10477281;28;20075;-74
2023/01/19 08:55:48;;;;;;;49.42;4.72;;;;;;;;;;10477733;28;20093;-74
2023/01/19 09:00:51;;;;;;;28.13;4.00;;;;;;;;;;10396901;28;20098;-74
2023/01/19 09:05:51;;;;;;;32.50;5.00;;;;;;;;;;10408985;28;20047;-73
2023/01/19 09:10:51;;;;;;;30.42;3.97;;;;;;;;;;10452738;28;20025;-74
2023/01/19 09:15:52;;;;;;;26.75;3.92;;;;;;;;;;10445988;28;20033;-75
2023/01/19 09:20:56;;;;;;;44.87;4.87;;;;;;;;;;10450046;28;20032;-76
2023/01/19 09:25:58;;;;;;;26.52;3.50;;;;;;;;;;10456160;28;20052;-75
2023/01/19 09:30:58;;;;;;;19.83;2.85;;;;;;;;;;10488116;28;20467;-75
2023/01/19 09:35:58;;;;;;;25.25;3.53;;;;;;;;;;10469475;28;20025;-73
2023/01/19 09:40:59;;;;;;;29.50;4.03;;;;;;;;;;10451898;28;20035;-79
2023/01/19 09:46:01;;;;;;;28.35;4.55;;;;;;;;;;10428746;28;20272;-76
2023/01/19 09:51:03;;;;;;;27.02;3.78;;;;;;;;;;10427548;28;20072;-73
2023/01/19 09:56:03;;;;;;;14.07;2.45;;;;;;;;;;10444346;28;20071;-75
2023/01/19 10:01:24;;;;;;;29.57;3.47;;;;;;;;;;10418849;28;20509;-78
2023/01/19 10:06:25;;;;;;;27.20;3.33;;;;;;;;;;10417943;28;20311;-74
2023/01/19 10:11:32;;;;;;;33.10;3.83;;;;;;;;;;10452156;28;20464;-77
2023/01/19 10:16:44;;;;;;;18.98;2.65;;;;;;;;;;10468758;28;20135;-72
2023/01/19 10:21:45;;;;;;;17.50;1.88;;;;;;;;;;10448519;28;20025;-77
2023/01/19 10:26:51;;;;;;;38.08;2.97;;;;;;;;;;10443814;28;20053;-73
2023/01/19 10:31:56;;;;;;;19.55;2.42;;;;;;;;;;10426575;28;20051;-76
2023/01/19 10:37:01;;;;;;;16.17;1.90;;;;;;;;;;10442790;28;20584;-74
2023/01/19 10:42:02;;;;;;;15.32;2.30;;;;;;;;;;10465265;28;20012;-77
2023/01/19 10:47:04;;;;;;;24.50;4.15;;;;;;;;;;10462247;28;20550;-73
2023/01/19 10:52:06;;;;;;;18.85;2.63;;;;;;;;;;10467146;28;20020;-77
2023/01/19 10:57:07;;;;;;;25.23;3.33;;;;;;;;;;10466729;28;20102;-76
2023/01/19 11:02:17;;;;;;;23.27;2.97;;;;;;;;;;10466070;28;20012;-75
2023/01/19 11:07:19;;;;;;;18.65;2.40;;;;;;;;;;10484190;28;20232;-75
2023/01/19 11:12:20;;;;;;;27.38;4.22;;;;;;;;;;10445036;28;20032;-78
2023/01/19 11:17:22;;;;;;;17.10;2.00;;;;;;;;;;10441344;28;20017;-77
2023/01/19 11:22:27;;;;;;;14.93;1.90;;;;;;;;;;10481414;28;20021;-75
2023/01/19 11:27:28;;;;;;;22.92;2.83;;;;;;;;;;10459978;28;20057;-79
2023/01/19 11:32:32;;;;;;;14.00;1.80;;;;;;;;;;10424008;28;20025;-78
2023/01/19 11:37:33;;;;;;;15.65;2.13;;;;;;;;;;10407851;28;20024;-77
2023/01/19 11:42:36;;;;;;;28.70;3.20;;;;;;;;;;10418951;28;20100;-80
2023/01/19 11:47:51;;;;;;;15.75;2.42;;;;;;;;;;10423235;28;20021;-73
2023/01/19 11:52:52;;;;;;;15.65;2.75;;;;;;;;;;10423187;28;20502;-79
2023/01/19 11:57:53;;;;;;;12.85;2.25;;;;;;;;;;10440328;28;20024;-72
2023/01/19 12:02:55;;;;;;;15.25;2.28;;;;;;;;;;10458584;28;20028;-75
2023/01/19 12:07:57;;;;;;;13.23;2.30;;;;;;;;;;10464088;28;20028;-73
2023/01/19 12:12:57;;;;;;;17.85;1.98;;;;;;;;;;10441039;28;20120;-73
2023/01/19 12:17:59;;;;;;;22.17;3.07;;;;;;;;;;10441031;28;20033;-73
2023/01/19 12:23:20;;;;;;;11.50;2.50;;;;;;;;;;10439087;28;20029;-74
2023/01/19 12:28:26;;;;;;;11.32;1.65;;;;;;;;;;10445536;28;20492;-77
2023/01/19 12:33:34;;;;;;;18.77;2.45;;;;;;;;;;10483140;22;20102;-76
2023/01/19 12:38:35;;;;;;;16.10;1.85;;;;;;;;;;10452306;28;20032;-75
2023/01/19 12:43:35;;;;;;;8.50;2.42;;;;;;;;;;10463504;28;20025;-73
2023/01/19 12:48:35;;;;;;;13.43;2.47;;;;;;;;;;10467270;28;20040;-74
2023/01/19 12:53:35;;;;;;;11.07;1.38;;;;;;;;;;10471073;28;20036;-76
2023/01/19 12:58:36;;;;;;;7.45;1.63;;;;;;;;;;10471113;28;20024;-76
2023/01/19 13:03:45;;;;;;;15.67;1.50;;;;;;;;;;10472002;28;20021;-73
2023/01/19 13:08:56;;;;;;;19.95;1.77;;;;;;;;;;10470413;28;20051;-77
2023/01/19 13:13:59;;;;;;;9.68;2.13;;;;;;;;;;10470623;28;20047;-74
2023/01/19 13:18:59;;;;;;;5.63;1.50;;;;;;;;;;10476835;28;20024;-74
2023/01/19 13:24:01;;;;;;;17.58;2.25;;;;;;;;;;10485627;28;20397;-77
2023/01/19 13:29:06;;;;;;;16.20;1.65;;;;;;;;;;10508823;28;20115;-72
2023/01/19 13:34:17;;;;;;;6.88;1.52;;;;;;;;;;10465897;28;20075;-73
2023/01/19 13:39:35;;;;;;;8.68;1.50;;;;;;;;;;10468903;28;20479;-76
2023/01/19 13:44:39;;;;;;;7.25;2.00;;;;;;;;;;10469996;28;20486;-74
2023/01/19 13:49:42;;;;;;;10.93;1.38;;;;;;;;;;10470125;28;20349;-72
2023/01/19 13:54:49;;;;;;;17.45;1.50;;;;;;;;;;10487480;28;20031;-73
2023/01/19 14:00:14;;;;;;;9.02;2.72;;;;;;;;;;10469586;28;20498;-71
2023/01/19 14:05:25;;;;;;;9.27;1.33;;;;;;;;;;10468612;28;20020;-78
2023/01/19 14:10:26;;;;;;;13.57;2.33;;;;;;;;;;10464655;28;20032;-73
2023/01/19 14:15:28;;;;;;;4.45;1.52;;;;;;;;;;10466491;28;20403;-74
2023/01/19 14:20:29;;;;;;;8.38;1.08;;;;;;;;;;10458927;28;20021;-78
2023/01/19 14:25:30;;;;;;;8.30;1.38;;;;;;;;;;10465842;28;20021;-74
2023/01/19 14:30:31;;;;;;;11.63;1.80;;;;;;;;;;10483572;28;20115;-73
2023/01/19 14:35:33;;;;;;;4.15;1.63;;;;;;;;;;10482208;28;20181;-73
2023/01/19 14:40:36;;;;;;;4.90;1.23;;;;;;;;;;10465431;28;20025;-77
2023/01/19 14:45:39;;;;;;;12.50;1.73;;;;;;;;;;10465253;28;20032;-76
2023/01/19 14:50:40;;;;;;;9.85;1.80;;;;;;;;;;10464340;28;20036;-76
2023/01/19 14:55:50;;;;;;;8.63;1.45;;;;;;;;;;10464130;28;20118;-73
2023/01/19 15:00:54;;;;;;;13.90;2.10;;;;;;;;;;10456666;28;20032;-77
2023/01/19 15:05:54;;;;;;;11.02;1.45;;;;;;;;;;10482794;28;20166;-77
2023/01/19 15:10:55;;;;;;;7.20;1.35;;;;;;;;;;10463228;28;20097;-72
2023/01/19 15:15:57;;;;;;;6.28;1.60;;;;;;;;;;10462793;28;20040;-73
2023/01/19 15:21:01;;;;;;;7.45;1.45;;;;;;;;;;10464752;28;20028;-77
2023/01/19 15:26:03;;;;;;;8.65;2.13;;;;;;;;;;10469795;28;20494;-77
2023/01/19 15:31:03;;;;;;;10.00;1.83;;;;;;;;;;10474269;28;20123;-76
2023/01/19 15:36:04;;;;;;;12.82;1.92;;;;;;;;;;10482667;28;20042;-75
2023/01/19 15:41:17;;;;;;;8.60;1.67;;;;;;;;;;10462458;28;20024;-78
2023/01/19 15:46:19;;;;;;;13.88;1.65;;;;;;;;;;10465817;28;20027;-79
2023/01/19 15:51:21;;;;;;;20.55;3.03;;;;;;;;;;10464229;28;20021;-79
2023/01/19 15:56:23;;;;;;;8.82;1.65;;;;;;;;;;10441009;28;20021;-74
2023/01/19 16:01:32;;;;;;;10.23;3.60;;;;;;;;;;10465508;28;20020;-78
2023/01/19 16:06:32;;;;;;;14.77;3.38;;;;;;;;;;10473534;28;20381;-77
2023/01/19 16:11:36;;;;;;;22.83;8.13;;;;;;;;;;10464328;28;20027;-73
2023/01/19 16:16:37;;;;;;;9.77;1.60;;;;;;;;;;10464728;28;20071;-76
2023/01/19 16:21:37;;;;;;;7.90;1.55;;;;;;;;;;10501924;28;20028;-73
2023/01/19 16:26:37;;;;;;;4.07;1.67;;;;;;;;;;10497230;28;20027;-73
2023/01/19 16:31:39;;;;;;;3.97;0.97;;;;;;;;;;10489675;28;20045;-73
2023/01/19 16:36:40;;;;;;;5.43;1.63;;;;;;;;;;10487772;28;20304;-72
2023/01/19 16:41:41;;;;;;;7.22;1.17;;;;;;;;;;10477484;28;20516;-75
2023/01/19 16:46:43;;;;;;;11.48;1.50;;;;;;;;;;10471279;28;20047;-76
2023/01/19 16:51:44;;;;;;;3.17;0.95;;;;;;;;;;10470987;28;20205;-75
2023/01/19 16:56:45;;;;;;;4.70;1.20;;;;;;;;;;10471649;28;20189;-74
2023/01/19 17:01:45;;;;;;;5.10;1.52;;;;;;;;;;10454562;28;20522;-75
2023/01/19 17:06:46;;;;;;;2.88;1.02;;;;;;;;;;10470951;28;20486;-75
2023/01/19 17:11:46;;;;;;;7.27;1.40;;;;;;;;;;10481339;28;20024;-79
2023/01/19 17:16:47;;;;;;;8.87;1.77;;;;;;;;;;10482674;28;20036;-77
2023/01/19 17:21:47;;;;;;;8.65;2.95;;;;;;;;;;10470515;28;20017;-72
2023/01/19 17:26:48;;;;;;;8.18;2.38;;;;;;;;;;10483337;28;20111;-76
2023/01/19 17:31:51;;;;;;;3.40;0.95;;;;;;;;;;10488347;28;20545;-77
2023/01/19 17:36:51;;;;;;;7.10;0.90;;;;;;;;;;10468746;28;20029;-75
2023/01/19 17:41:51;;;;;;;11.38;2.97;;;;;;;;;;10497699;28;20064;-78
2023/01/19 17:46:51;;;;;;;10.75;3.33;;;;;;;;;;10505287;28;20036;-74
2023/01/19 17:51:54;;;;;;;13.55;3.63;;;;;;;;;;10474255;28;20085;-76
2023/01/19 17:56:55;;;;;;;5.00;2.22;;;;;;;;;;10469157;28;20025;-74
2023/01/19 18:01:55;;;;;;;7.25;3.20;;;;;;;;;;10468955;28;20103;-78
2023/01/19 18:06:55;;;;;;;6.20;2.13;;;;;;;;;;10451997;28;20024;-77
2023/01/19 18:11:56;;;;;;;10.32;3.45;;;;;;;;;;10458223;28;20083;-78
2023/01/19 18:16:56;;;;;;;14.55;3.20;;;;;;;;;;10467357;28;20128;-74
2023/01/19 18:21:57;;;;;;;5.72;2.90;;;;;;;;;;10476730;28;20383;-74
2023/01/19 18:26:57;;;;;;;8.67;3.73;;;;;;;;;;10476997;28;20032;-75
2023/01/19 18:31:57;;;;;;;12.47;4.73;;;;;;;;;;10465211;28;20295;-74
2023/01/19 18:36:58;;;;;;;14.38;3.25;;;;;;;;;;10468537;28;20803;-75
2023/01/19 18:41:59;;;;;;;7.40;1.70;;;;;;;;;;10457871;28;20532;-76
2023/01/19 18:46:59;;;;;;;7.15;2.72;;;;;;;;;;10459846;28;20418;-73
2023/01/19 18:52:02;;;;;;;2.97;1.73;;;;;;;;;;10460484;28;20020;-73
2023/01/19 18:57:02;;;;;;;6.47;1.85;;;;;;;;;;10464764;28;20112;-72
2023/01/19 19:02:05;;;;;;;2.67;1.38;;;;;;;;;;10469399;28;20031;-72
2023/01/19 19:07:05;;;;;;;5.43;1.80;;;;;;;;;;10463154;28;20025;-73
2023/01/19 19:12:06;;;;;;;7.93;1.87;;;;;;;;;;10464966;28;20027;-77
2023/01/19 19:17:06;;;;;;;5.90;2.07;;;;;;;;;;10467545;28;20024;-78
2023/01/19 19:22:06;;;;;;;6.25;1.77;;;;;;;;;;10463716;28;20792;-73
2023/01/19 19:27:12;;;;;;;6.88;2.20;;;;;;;;;;10484288;28;20032;-74
2023/01/19 19:32:14;;;;;;;3.63;2.10;;;;;;;;;;10463936;28;20529;-75
2023/01/19 19:37:15;;;;;;;6.10;2.50;;;;;;;;;;10486142;28;20718;-73
2023/01/19 19:42:15;;;;;;;5.25;2.63;;;;;;;;;;10463598;28;20029;-73
2023/01/19 19:47:15;;;;;;;7.93;3.93;;;;;;;;;;10483548;28;20113;-80
2023/01/19 19:52:16;;;;;;;10.82;3.85;;;;;;;;;;10465206;28;20735;-73
2023/01/19 19:57:16;;;;;;;5.75;2.67;;;;;;;;;;10482352;28;20632;-72
2023/01/19 20:02:16;;;;;;;5.10;3.33;;;;;;;;;;10482034;28;20410;-72
2023/01/19 20:07:16;;;;;;;5.05;2.80;;;;;;;;;;10480575;28;20449;-72
2023/01/19 20:12:17;;;;;;;3.90;2.17;;;;;;;;;;10464242;28;20035;-71
2023/01/19 20:17:17;;;;;;;7.88;2.63;;;;;;;;;;10478364;28;20036;-70
2023/01/19 20:22:18;;;;;;;4.03;1.90;;;;;;;;;;10483676;28;20032;-74
2023/01/19 20:27:18;;;;;;;2.57;1.60;;;;;;;;;;10449893;28;20101;-72
2023/01/19 20:32:18;;;;;;;9.60;3.50;;;;;;;;;;10458688;28;20052;-73
2023/01/19 20:37:19;;;;;;;4.15;2.15;;;;;;;;;;10459888;28;20414;-75
2023/01/19 20:42:19;;;;;;;9.63;2.35;;;;;;;;;;10460396;28;20568;-74
2023/01/19 20:47:20;;;;;;;7.77;3.03;;;;;;;;;;10456959;28;20831;-74
2023/01/19 20:52:21;;;;;;;4.68;2.75;;;;;;;;;;10444535;28;20120;-72
2023/01/19 20:57:21;;;;;;;4.85;2.65;;;;;;;;;;10475916;28;20029;-77
2023/01/19 21:02:22;;;;;;;7.47;3.28;;;;;;;;;;10463794;28;20035;-77
2023/01/19 21:07:22;;;;;;;5.05;2.92;;;;;;;;;;10482495;28;20024;-76
2023/01/19 21:12:22;;;;;;;4.47;2.47;;;;;;;;;;10466462;28;20016;-76
2023/01/19 21:17:22;;;;;;;7.88;3.05;;;;;;;;;;10466976;28;20475;-76
2023/01/19 21:22:23;;;;;;;9.95;3.10;;;;;;;;;;10467806;28;20082;-76
2023/01/19 21:27:23;;;;;;;8.05;3.42;;;;;;;;;;10467144;28;20468;-74
2023/01/19 21:32:23;;;;;;;7.22;3.92;;;;;;;;;;10468197;28;20231;-72
2023/01/19 21:37:23;;;;;;;8.95;3.63;;;;;;;;;;10468273;28;20024;-77
2023/01/19 21:42:24;;;;;;;7.22;3.83;;;;;;;;;;10486383;28;20035;-74
2023/01/19 21:47:24;;;;;;;9.48;4.68;;;;;;;;;;10468765;28;20044;-75
2023/01/19 21:52:24;;;;;;;12.38;7.05;;;;;;;;;;10468963;28;20033;-78
2023/01/19 21:57:24;;;;;;;18.90;10.75;;;;;;;;;;10485652;28;20030;-72
2023/01/19 22:02:25;;;;;;;18.27;7.72;;;;;;;;;;10468407;28;20024;-75
2023/01/19 22:07:25;;;;;;;11.10;5.50;;;;;;;;;;10467032;28;20020;-73
2023/01/19 22:12:25;;;;;;;8.68;5.57;;;;;;;;;;10452304;28;20032;-73
2023/01/19 22:17:25;;;;;;;9.73;5.30;;;;;;;;;;10468562;28;20490;-72
2023/01/19 22:22:26;;;;;;;17.90;10.23;;;;;;;;;;10468559;28;20032;-72
2023/01/19 22:27:27;;;;;;;20.02;7.05;;;;;;;;;;10468212;28;20141;-74
2023/01/19 22:32:27;;;;;;;10.63;4.93;;;;;;;;;;10466603;28;20062;-73
2023/01/19 22:37:27;;;;;;;9.20;4.50;;;;;;;;;;10485626;28;20043;-73
2023/01/19 22:42:28;;;;;;;10.20;5.50;;;;;;;;;;10466863;28;20028;-73
2023/01/19 22:47:28;;;;;;;17.20;8.27;;;;;;;;;;10467437;28;20082;-78
2023/01/19 22:52:28;;;;;;;14.43;8.53;;;;;;;;;;10467409;28;20024;-76
2023/01/19 22:57:32;;;;;;;13.15;6.47;;;;;;;;;;10466630;28;20063;-76
2023/01/19 23:02:32;;;;;;;11.25;4.47;;;;;;;;;;10450444;28;20020;-77
2023/01/19 23:07:33;;;;;;;6.95;3.80;;;;;;;;;;10484442;28;20418;-75
2023/01/19 23:12:33;;;;;;;3.03;2.00;;;;;;;;;;10466346;28;20031;-76
2023/01/19 23:17:33;;;;;;;7.78;2.90;;;;;;;;;;10466019;28;20024;-76
2023/01/19 23:22:34;;;;;;;4.40;2.43;;;;;;;;;;10466042;28;20185;-72
2023/01/19 23:27:34;;;;;;;3.78;2.17;;;;;;;;;;10465559;28;20048;-75
2023/01/19 23:32:34;;;;;;;8.77;3.72;;;;;;;;;;10465024;28;20058;-77
2023/01/19 23:37:34;;;;;;;8.15;4.45;;;;;;;;;;10466011;28;20028;-77
2023/01/19 23:42:35;;;;;;;7.55;4.45;;;;;;;;;;10465927;28;20034;-72
2023/01/19 23:47:35;;;;;;;13.45;4.93;;;;;;;;;;10448957;28;20029;-72
2023/01/19 23:52:35;;;;;;;12.18;4.60;;;;;;;;;;10465399;28;20021;-75
2023/01/19 23:57:36;;;;;;;7.88;4.63;;;;;;;;;;10465200;28;20111;-76
